createdAt,value
2022-10-31T00:00:53.164Z,9.80
2022-10-31T00:04:53.319Z,9.70
2022-10-31T00:09:01.796Z,9.60
2022-10-31T00:13:02.028Z,9.60
2022-10-31T00:17:02.337Z,9.60
2022-10-31T00:21:06.953Z,9.50
2022-10-31T00:25:10.547Z,9.40
2022-10-31T00:29:10.654Z,9.30
2022-10-31T00:33:10.936Z,9.40
2022-10-31T00:37:11.097Z,9.30
2022-10-31T00:41:14.505Z,9.30
2022-10-31T00:45:15.447Z,9.40
2022-10-31T00:49:15.703Z,9.40
2022-10-31T00:53:15.993Z,9.30
2022-10-31T00:57:19.026Z,9.30
2022-10-31T01:01:20.533Z,9.20
2022-10-31T01:05:21.513Z,9.10
2022-10-31T01:09:22.076Z,9.10
2022-10-31T01:13:24.791Z,9.10
2022-10-31T01:17:26.304Z,9.10
2022-10-31T01:21:29.900Z,9.10
2022-10-31T01:25:32.604Z,9.10
2022-10-31T01:29:35.396Z,9.10
2022-10-31T01:33:35.654Z,9.20
2022-10-31T01:37:36.017Z,9.20
2022-10-31T01:41:39.407Z,9.20
2022-10-31T01:45:45.645Z,9.20
2022-10-31T01:49:52.912Z,9.20
2022-10-31T01:53:59.128Z,9.20
2022-10-31T01:58:05.903Z,9.20
2022-10-31T02:02:10.495Z,9.20
2022-10-31T02:06:17.645Z,9.20
2022-10-31T02:10:18.735Z,9.10
2022-10-31T02:14:19.572Z,9.10
2022-10-31T02:18:23.544Z,9.10
2022-10-31T02:22:31.729Z,9.10
2022-10-31T02:27:19.135Z,9.10
2022-10-31T02:31:37.434Z,9.10
2022-10-31T02:35:54.187Z,9.00
2022-10-31T02:40:08.696Z,9.10
2022-10-31T02:44:42.237Z,9.10
2022-10-31T02:48:49.165Z,9.10
2022-10-31T02:52:54.447Z,9.00
2022-10-31T02:57:00.141Z,8.90
2022-10-31T03:01:51.369Z,8.80
2022-10-31T03:06:06.633Z,8.80
2022-10-31T03:10:18.989Z,8.70
2022-10-31T03:14:28.515Z,8.70
2022-10-31T03:18:38.071Z,8.70
2022-10-31T03:22:46.568Z,8.70
2022-10-31T03:26:55.350Z,8.70
2022-10-31T03:31:00.407Z,8.70
2022-10-31T03:35:06.549Z,8.70
2022-10-31T03:39:16.973Z,8.70
2022-10-31T03:43:25.703Z,8.70
2022-10-31T03:47:26.586Z,8.80
2022-10-31T03:51:36.357Z,8.80
2022-10-31T03:55:49.894Z,8.80
2022-10-31T03:59:58.894Z,8.90
2022-10-31T04:04:00.699Z,8.80
2022-10-31T04:08:07.132Z,8.80
2022-10-31T04:12:16.082Z,8.80
2022-10-31T04:16:20.811Z,8.80
2022-10-31T04:20:22.214Z,8.70
2022-10-31T04:24:22.667Z,8.70
2022-10-31T04:28:25.933Z,8.70
2022-10-31T04:32:26.211Z,8.60
2022-10-31T04:36:28.297Z,8.60
2022-10-31T04:40:28.574Z,8.60
2022-10-31T04:44:31.242Z,8.50
2022-10-31T04:48:34.645Z,8.60
2022-10-31T04:52:36.805Z,8.50
2022-10-31T04:56:37.238Z,8.50
2022-10-31T05:00:47.039Z,8.50
2022-10-31T05:04:48.271Z,8.50
2022-10-31T05:08:49.492Z,8.40
2022-10-31T05:12:51.580Z,8.40
2022-10-31T05:17:12.810Z,8.40
2022-10-31T05:21:38.887Z,8.30
2022-10-31T05:25:39.197Z,8.30
2022-10-31T05:29:39.362Z,8.20
2022-10-31T05:33:42.034Z,8.20
2022-10-31T05:38:01.918Z,8.10
2022-10-31T05:42:02.078Z,8.00
2022-10-31T05:46:03.889Z,8.10
2022-10-31T05:50:25.751Z,8.00
2022-10-31T05:54:41.700Z,8.00
2022-10-31T05:58:42.816Z,8.00
2022-10-31T06:02:43.023Z,8.00
2022-10-31T06:07:01.083Z,8.00
2022-10-31T06:11:01.210Z,7.90
2022-10-31T06:15:25.014Z,7.90
2022-10-31T06:19:26.855Z,7.90
2022-10-31T06:23:29.723Z,7.90
2022-10-31T06:27:49.779Z,7.90
2022-10-31T06:31:50.080Z,7.90
2022-10-31T06:35:51.444Z,7.90
2022-10-31T06:39:54.773Z,7.90
2022-10-31T06:43:55.120Z,7.90
2022-10-31T06:48:21.637Z,8.10
2022-10-31T06:52:42.280Z,8.10
2022-10-31T06:56:45.353Z,8.20
2022-10-31T07:00:45.690Z,8.40
2022-10-31T07:04:46.668Z,8.50
2022-10-31T07:08:48.861Z,8.60
2022-10-31T07:12:51.850Z,8.70
2022-10-31T07:16:55.601Z,8.80
2022-10-31T07:21:00.591Z,9.00
2022-10-31T07:25:00.727Z,9.20
2022-10-31T07:29:12.406Z,9.30
2022-10-31T07:33:13.035Z,9.40
2022-10-31T07:37:33.080Z,9.50
2022-10-31T07:41:33.423Z,9.50
2022-10-31T07:45:36.349Z,9.60
2022-10-31T07:49:54.736Z,9.80
2022-10-31T07:54:15.063Z,9.80
2022-10-31T07:58:18.715Z,10.00
2022-10-31T08:02:22.030Z,10.30
2022-10-31T08:06:22.126Z,10.30
2022-10-31T08:10:44.626Z,10.50
2022-10-31T08:14:45.265Z,10.80
2022-10-31T08:18:48.790Z,11.10
2022-10-31T08:22:58.330Z,11.30
2022-10-31T08:26:59.610Z,11.40
2022-10-31T08:31:02.241Z,11.40
2022-10-31T08:35:17.762Z,11.40
2022-10-31T08:39:40.615Z,11.50
2022-10-31T08:43:40.877Z,11.60
2022-10-31T08:47:41.046Z,11.90
2022-10-31T08:51:46.875Z,12.20
2022-10-31T08:55:49.497Z,12.40
2022-10-31T08:59:57.573Z,12.50
2022-10-31T09:04:18.163Z,12.70
2022-10-31T09:08:21.660Z,12.80
2022-10-31T09:12:21.845Z,13.00
2022-10-31T09:16:40.642Z,13.10
2022-10-31T09:20:49.919Z,13.70
2022-10-31T09:24:53.465Z,14.30
2022-10-31T09:28:53.524Z,14.80
2022-10-31T09:32:59.485Z,15.30
2022-10-31T09:36:59.875Z,15.90
2022-10-31T09:41:22.977Z,16.20
2022-10-31T09:45:35.006Z,16.70
2022-10-31T09:50:06.259Z,17.40
2022-10-31T09:54:14.717Z,17.90
2022-10-31T09:58:22.731Z,18.00
2022-10-31T10:02:31.738Z,18.20
2022-10-31T10:06:39.560Z,18.40
2022-10-31T10:11:15.425Z,18.80
2022-10-31T10:15:59.398Z,19.10
2022-10-31T10:20:29.003Z,19.80
2022-10-31T10:24:55.170Z,20.20
2022-10-31T10:29:05.154Z,20.40
2022-10-31T10:33:14.939Z,21.00
2022-10-31T10:37:28.748Z,21.20
2022-10-31T10:41:35.218Z,21.40
2022-10-31T10:45:47.960Z,21.60
2022-10-31T10:49:55.703Z,21.90
2022-10-31T10:54:30.942Z,21.90
2022-10-31T10:58:31.141Z,21.70
2022-10-31T11:02:36.727Z,21.70
2022-10-31T11:06:39.479Z,21.70
2022-10-31T11:10:40.787Z,22.00
2022-10-31T11:14:50.890Z,23.00
2022-10-31T11:18:51.836Z,23.90
2022-10-31T11:23:08.493Z,24.20
2022-10-31T11:27:20.926Z,24.30
2022-10-31T11:31:21.277Z,25.10
2022-10-31T11:35:25.991Z,26.30
2022-10-31T11:39:29.084Z,27.30
2022-10-31T11:43:30.086Z,27.10
2022-10-31T11:47:33.700Z,25.90
2022-10-31T11:51:38.501Z,25.80
2022-10-31T11:55:43.451Z,26.30
2022-10-31T11:59:43.684Z,26.00
2022-10-31T12:03:58.825Z,26.50
2022-10-31T12:08:03.440Z,26.70
2022-10-31T12:12:36.839Z,26.90
2022-10-31T12:16:46.428Z,26.50
2022-10-31T12:21:04.596Z,25.50
2022-10-31T12:25:29.378Z,24.80
2022-10-31T12:29:53.564Z,24.10
2022-10-31T12:34:13.954Z,23.80
2022-10-31T12:38:53.790Z,23.70
2022-10-31T12:43:10.828Z,23.70
2022-10-31T12:47:40.177Z,23.60
2022-10-31T12:51:54.818Z,23.70
2022-10-31T12:56:18.757Z,23.60
2022-10-31T13:00:24.239Z,23.60
2022-10-31T13:04:46.109Z,23.50
2022-10-31T13:08:54.957Z,23.20
2022-10-31T13:13:03.015Z,23.10
2022-10-31T13:17:06.194Z,22.90
2022-10-31T13:21:16.573Z,22.90
2022-10-31T13:25:23.163Z,22.60
2022-10-31T13:29:32.853Z,22.30
2022-10-31T13:33:39.430Z,21.70
2022-10-31T13:37:54.528Z,21.20
2022-10-31T13:42:03.581Z,20.90
2022-10-31T13:46:03.871Z,20.60
2022-10-31T13:50:23.905Z,20.40
2022-10-31T13:54:36.882Z,20.20
2022-10-31T13:58:38.193Z,20.10
2022-10-31T14:02:40.533Z,19.90
2022-10-31T14:06:53.686Z,19.70
2022-10-31T14:10:59.646Z,19.40
2022-10-31T14:15:08.395Z,19.30
2022-10-31T14:19:17.662Z,19.30
2022-10-31T14:23:41.725Z,19.20
2022-10-31T14:27:53.008Z,19.20
2022-10-31T14:32:00.203Z,19.20
2022-10-31T14:36:07.783Z,19.30
2022-10-31T14:40:26.533Z,19.70
2022-10-31T14:45:12.253Z,20.00
2022-10-31T14:49:35.400Z,20.10
2022-10-31T14:53:39.366Z,20.10
2022-10-31T14:57:46.028Z,19.80
2022-10-31T15:02:01.631Z,19.60
2022-10-31T15:06:07.044Z,19.30
2022-10-31T15:10:22.408Z,19.00
2022-10-31T15:14:29.607Z,18.70
2022-10-31T15:18:32.872Z,18.40
2022-10-31T15:22:35.380Z,18.10
2022-10-31T15:26:43.233Z,17.90
2022-10-31T15:30:43.472Z,17.70
2022-10-31T15:34:47.763Z,17.50
2022-10-31T15:38:48.479Z,17.30
2022-10-31T15:42:55.410Z,17.20
2022-10-31T15:47:01.931Z,17.20
2022-10-31T15:51:06.034Z,17.00
2022-10-31T15:55:21.812Z,16.80
2022-10-31T15:59:28.135Z,16.60
2022-10-31T16:03:31.246Z,16.30
2022-10-31T16:07:34.617Z,16.00
2022-10-31T16:11:42.183Z,15.80
2022-10-31T16:15:59.554Z,15.60
2022-10-31T16:20:26.930Z,15.50
2022-10-31T16:24:35.507Z,15.30
2022-10-31T16:28:43.195Z,15.20
2022-10-31T16:32:59.385Z,15.10
2022-10-31T16:37:00.036Z,15.00
2022-10-31T16:41:05.112Z,14.90
2022-10-31T16:45:05.386Z,14.80
2022-10-31T16:49:05.600Z,14.70
2022-10-31T16:53:13.970Z,14.60
2022-10-31T16:57:21.275Z,14.50
2022-10-31T17:01:21.615Z,14.50
2022-10-31T17:05:30.314Z,14.50
2022-10-31T17:09:30.538Z,14.40
2022-10-31T17:13:37.275Z,14.30
2022-10-31T17:17:37.624Z,14.20
2022-10-31T17:21:38.906Z,14.10
2022-10-31T17:25:39.527Z,14.00
2022-10-31T17:29:42.231Z,13.80
2022-10-31T17:33:43.440Z,13.70
2022-10-31T17:37:45.233Z,13.50
2022-10-31T17:41:45.371Z,13.40
2022-10-31T17:45:48.037Z,13.40
2022-10-31T17:49:48.253Z,13.30
2022-10-31T17:53:48.497Z,13.20
2022-10-31T17:57:49.202Z,13.10
2022-10-31T18:01:52.070Z,13.00
2022-10-31T18:05:57.551Z,12.90
2022-10-31T18:09:57.756Z,12.80
2022-10-31T18:13:59.917Z,12.60
2022-10-31T18:18:02.912Z,12.50
2022-10-31T18:22:03.820Z,12.40
2022-10-31T18:26:03.985Z,12.20
2022-10-31T18:30:04.093Z,12.20
2022-10-31T18:34:06.824Z,12.10
2022-10-31T18:38:08.025Z,12.00
2022-10-31T18:42:08.542Z,11.90
2022-10-31T18:46:11.796Z,11.80
2022-10-31T18:50:15.138Z,11.70
2022-10-31T18:54:15.221Z,11.70
2022-10-31T18:58:15.364Z,11.60
2022-10-31T19:02:18.353Z,11.50
2022-10-31T19:06:21.177Z,11.40
2022-10-31T19:10:21.437Z,11.40
2022-10-31T19:14:21.817Z,11.30
2022-10-31T19:18:21.929Z,11.20
2022-10-31T19:22:24.606Z,11.10
2022-10-31T19:26:24.908Z,11.10
2022-10-31T19:30:25.168Z,11.00
2022-10-31T19:34:25.284Z,10.90
2022-10-31T19:38:28.012Z,10.90
2022-10-31T19:42:29.039Z,10.80
2022-10-31T19:50:49.664Z,10.60
2022-10-31T19:54:52.307Z,10.50
2022-10-31T19:58:52.632Z,10.50
2022-10-31T20:02:52.790Z,10.40
2022-10-31T20:06:52.885Z,10.40
2022-10-31T20:11:03.903Z,10.30
2022-10-31T20:15:04.104Z,10.20
2022-10-31T20:19:04.316Z,10.20
2022-10-31T20:23:04.726Z,10.10
2022-10-31T20:27:07.544Z,10.10
2022-10-31T20:31:12.642Z,10.00
2022-10-31T20:35:13.560Z,10.00
2022-10-31T20:39:13.747Z,9.90
2022-10-31T20:43:16.980Z,9.80
2022-10-31T20:47:19.493Z,9.80
2022-10-31T20:51:25.096Z,9.70
2022-10-31T20:55:25.277Z,9.70
2022-10-31T20:59:27.950Z,9.60
2022-10-31T21:03:29.630Z,9.60
2022-10-31T21:07:32.762Z,9.50
2022-10-31T21:11:33.523Z,9.40
2022-10-31T21:15:36.336Z,9.40
2022-10-31T21:19:37.624Z,9.30
2022-10-31T21:23:37.783Z,9.30
2022-10-31T21:27:37.874Z,9.20
2022-10-31T21:31:42.674Z,9.10
2022-10-31T21:35:42.846Z,9.10
2022-10-31T21:39:46.888Z,9.10
2022-10-31T21:43:54.943Z,9.00
2022-10-31T21:47:57.633Z,9.00
2022-10-31T21:51:57.784Z,8.90
2022-10-31T21:55:57.961Z,8.90
2022-10-31T21:59:58.052Z,9.00
2022-10-31T22:04:01.839Z,9.00
2022-10-31T22:08:02.248Z,9.10
2022-10-31T22:12:06.656Z,9.10
2022-10-31T22:16:10.026Z,9.10
2022-10-31T22:20:14.146Z,9.20
2022-10-31T22:24:15.270Z,9.20
2022-10-31T22:28:15.369Z,9.20
2022-10-31T22:32:15.530Z,9.30
2022-10-31T22:36:21.156Z,9.30
2022-10-31T22:40:21.291Z,9.30
2022-10-31T22:44:21.457Z,9.30
2022-10-31T22:48:21.569Z,9.30
2022-10-31T22:52:24.292Z,9.30
2022-10-31T22:56:26.863Z,9.30
2022-10-31T23:00:27.282Z,9.30
2022-10-31T23:04:27.403Z,9.30
2022-10-31T23:08:31.756Z,9.30
2022-10-31T23:12:45.419Z,9.30
2022-10-31T23:16:48.858Z,9.30
2022-10-31T23:20:54.353Z,9.20
2022-10-31T23:24:57.027Z,9.20
2022-10-31T23:28:54.619Z,9.20
2022-10-31T23:32:54.778Z,9.20
2022-10-31T23:36:55.263Z,9.10
2022-10-31T23:40:58.252Z,9.10
2022-10-31T23:44:58.827Z,9.10
2022-10-31T23:48:58.972Z,9.00
2022-10-31T23:52:59.049Z,9.00
2022-10-31T23:57:02.262Z,9.00
